sensor_id;sensor_type;location;lat;lon;timestamp;pressure;altitude;pressure_sealevel;temperature;humidity
11971;BME280;6045;42.682;23.294;2023-11-21T00:02:13;94468.56;;;7.42;76.44
11971;BME280;6045;42.682;23.294;2023-11-21T00:04:40;94470.41;;;7.42;76.72
11971;BME280;6045;42.682;23.294;2023-11-21T00:07:08;94471.03;;;7.44;76.44
11971;BME280;6045;42.682;23.294;2023-11-21T00:09:35;94470.16;;;7.50;76.30
11971;BME280;6045;42.682;23.294;2023-11-21T00:12:02;94459.31;;;7.51;76.50
11971;BME280;6045;42.682;23.294;2023-11-21T00:14:29;94470.78;;;7.52;76.77
11971;BME280;6045;42.682;23.294;2023-11-21T00:16:56;94474.25;;;7.52;76.48
11971;BME280;6045;42.682;23.294;2023-11-21T00:19:22;94472.78;;;7.56;77.24
11971;BME280;6045;42.682;23.294;2023-11-21T00:21:49;94473.81;;;7.55;76.56
11971;BME280;6045;42.682;23.294;2023-11-21T00:24:17;94466.50;;;7.51;76.14
11971;BME280;6045;42.682;23.294;2023-11-21T00:26:44;94466.91;;;7.48;76.21
11971;BME280;6045;42.682;23.294;2023-11-21T00:29:14;94462.19;;;7.50;76.05
11971;BME280;6045;42.682;23.294;2023-11-21T00:31:42;94460.72;;;7.54;77.40
11971;BME280;6045;42.682;23.294;2023-11-21T00:34:10;94460.56;;;7.49;77.21
11971;BME280;6045;42.682;23.294;2023-11-21T00:36:37;94458.72;;;7.49;76.58
11971;BME280;6045;42.682;23.294;2023-11-21T00:39:04;94465.44;;;7.52;76.55
11971;BME280;6045;42.682;23.294;2023-11-21T00:41:32;94461.97;;;7.51;76.57
11971;BME280;6045;42.682;23.294;2023-11-21T00:44:00;94460.56;;;7.49;76.24
11971;BME280;6045;42.682;23.294;2023-11-21T00:46:27;94467.94;;;7.47;76.65
11971;BME280;6045;42.682;23.294;2023-11-21T00:48:54;94462.84;;;7.45;76.96
11971;BME280;6045;42.682;23.294;2023-11-21T00:51:21;94464.91;;;7.43;76.83
11971;BME280;6045;42.682;23.294;2023-11-21T00:53:48;94466.75;;;7.43;76.62
11971;BME280;6045;42.682;23.294;2023-11-21T00:56:15;94453.88;;;7.40;76.79
11971;BME280;6045;42.682;23.294;2023-11-21T00:58:46;94452.25;;;7.39;76.26
11971;BME280;6045;42.682;23.294;2023-11-21T01:01:18;94446.53;;;7.35;76.61
11971;BME280;6045;42.682;23.294;2023-11-21T01:03:49;94442.91;;;7.30;76.33
11971;BME280;6045;42.682;23.294;2023-11-21T01:06:16;94452.72;;;7.29;76.10
11971;BME280;6045;42.682;23.294;2023-11-21T01:08:44;94452.72;;;7.29;76.51
11971;BME280;6045;42.682;23.294;2023-11-21T01:11:11;94449.06;;;7.24;76.46
11971;BME280;6045;42.682;23.294;2023-11-21T01:13:38;94442.97;;;7.17;76.37
11971;BME280;6045;42.682;23.294;2023-11-21T01:16:07;94442.59;;;7.13;76.39
11971;BME280;6045;42.682;23.294;2023-11-21T01:18:34;94435.41;;;7.14;76.40
11971;BME280;6045;42.682;23.294;2023-11-21T01:21:01;94442.78;;;7.12;76.42
11971;BME280;6045;42.682;23.294;2023-11-21T01:23:28;94447.09;;;7.13;76.87
11971;BME280;6045;42.682;23.294;2023-11-21T01:25:56;94453.25;;;7.07;76.76
11971;BME280;6045;42.682;23.294;2023-11-21T01:28:23;94446.31;;;7.06;76.88
11971;BME280;6045;42.682;23.294;2023-11-21T01:30:50;94441.41;;;7.03;76.29
11971;BME280;6045;42.682;23.294;2023-11-21T01:33:18;94442.66;;;7.00;76.42
11971;BME280;6045;42.682;23.294;2023-11-21T01:35:45;94452.31;;;6.95;77.08
11971;BME280;6045;42.682;23.294;2023-11-21T01:38:12;94459.66;;;6.93;76.97
11971;BME280;6045;42.682;23.294;2023-11-21T01:40:39;94458.63;;;6.94;76.88
11971;BME280;6045;42.682;23.294;2023-11-21T01:43:06;94454.13;;;6.94;76.84
11971;BME280;6045;42.682;23.294;2023-11-21T01:45:34;94452.09;;;6.96;76.85
11971;BME280;6045;42.682;23.294;2023-11-21T01:48:00;94447.59;;;6.97;76.64
11971;BME280;6045;42.682;23.294;2023-11-21T01:50:30;94448.00;;;6.94;76.48
11971;BME280;6045;42.682;23.294;2023-11-21T01:52:57;94439.25;;;6.86;76.37
11971;BME280;6045;42.682;23.294;2023-11-21T01:55:24;94439.47;;;6.85;76.56
11971;BME280;6045;42.682;23.294;2023-11-21T01:57:53;94443.56;;;6.87;77.01
11971;BME280;6045;42.682;23.294;2023-11-21T02:00:21;94444.78;;;6.85;76.61
11971;BME280;6045;42.682;23.294;2023-11-21T02:02:49;94443.16;;;6.84;76.78
11971;BME280;6045;42.682;23.294;2023-11-21T02:05:17;94448.22;;;6.85;76.60
11971;BME280;6045;42.682;23.294;2023-11-21T02:07:46;94442.72;;;6.87;76.54
11971;BME280;6045;42.682;23.294;2023-11-21T02:10:14;94448.88;;;6.87;76.51
11971;BME280;6045;42.682;23.294;2023-11-21T02:12:41;94452.53;;;6.86;76.36
11971;BME280;6045;42.682;23.294;2023-11-21T02:15:10;94444.78;;;6.85;76.48
11971;BME280;6045;42.682;23.294;2023-11-21T02:17:40;94442.13;;;6.78;76.56
11971;BME280;6045;42.682;23.294;2023-11-21T02:20:09;94439.47;;;6.78;76.30
11971;BME280;6045;42.682;23.294;2023-11-21T02:22:41;94443.56;;;6.81;76.31
11971;BME280;6045;42.682;23.294;2023-11-21T02:25:09;94437.22;;;6.82;76.59
11971;BME280;6045;42.682;23.294;2023-11-21T02:27:36;94441.50;;;6.83;76.63
11971;BME280;6045;42.682;23.294;2023-11-21T02:30:04;94443.78;;;6.79;76.76
11971;BME280;6045;42.682;23.294;2023-11-21T02:32:33;94432.38;;;6.72;76.98
11971;BME280;6045;42.682;23.294;2023-11-21T02:35:00;94434.00;;;6.73;77.36
11971;BME280;6045;42.682;23.294;2023-11-21T02:37:28;94431.16;;;6.68;77.35
11971;BME280;6045;42.682;23.294;2023-11-21T02:39:54;94433.41;;;6.65;77.44
11971;BME280;6045;42.682;23.294;2023-11-21T02:42:23;94435.69;;;6.61;77.98
11971;BME280;6045;42.682;23.294;2023-11-21T02:44:49;94437.13;;;6.57;78.06
11971;BME280;6045;42.682;23.294;2023-11-21T02:47:16;94440.22;;;6.54;77.90
11971;BME280;6045;42.682;23.294;2023-11-21T02:49:43;94437.97;;;6.51;78.03
11971;BME280;6045;42.682;23.294;2023-11-21T02:52:10;94441.66;;;6.44;77.94
11971;BME280;6045;42.682;23.294;2023-11-21T02:54:36;94432.28;;;6.41;78.13
11971;BME280;6045;42.682;23.294;2023-11-21T02:57:04;94436.16;;;6.45;78.38
11971;BME280;6045;42.682;23.294;2023-11-21T02:59:32;94432.25;;;6.48;78.40
11971;BME280;6045;42.682;23.294;2023-11-21T03:02:00;94437.97;;;6.51;78.06
11971;BME280;6045;42.682;23.294;2023-11-21T03:04:27;94426.94;;;6.54;77.83
11971;BME280;6045;42.682;23.294;2023-11-21T03:06:53;94424.66;;;6.58;77.30
11971;BME280;6045;42.682;23.294;2023-11-21T03:09:20;94421.81;;;6.59;77.37
11971;BME280;6045;42.682;23.294;2023-11-21T03:11:47;94429.78;;;6.59;76.93
11971;BME280;6045;42.682;23.294;2023-11-21T03:14:14;94429.78;;;6.59;76.82
11971;BME280;6045;42.682;23.294;2023-11-21T03:16:42;94418.13;;;6.60;76.64
11971;BME280;6045;42.682;23.294;2023-11-21T03:19:10;94428.13;;;6.58;77.03
11971;BME280;6045;42.682;23.294;2023-11-21T03:21:38;94447.13;;;6.55;76.57
11971;BME280;6045;42.682;23.294;2023-11-21T03:24:05;94444.50;;;6.49;76.83
11971;BME280;6045;42.682;23.294;2023-11-21T03:26:32;94448.16;;;6.48;77.12
11971;BME280;6045;42.682;23.294;2023-11-21T03:28:59;94445.94;;;6.45;77.34
11971;BME280;6045;42.682;23.294;2023-11-21T03:31:26;94457.38;;;6.45;78.08
11971;BME280;6045;42.682;23.294;2023-11-21T03:33:54;94447.38;;;6.47;77.95
11971;BME280;6045;42.682;23.294;2023-11-21T03:36:21;94443.47;;;6.43;77.84
11971;BME280;6045;42.682;23.294;2023-11-21T03:38:50;94447.00;;;6.37;77.73
11971;BME280;6045;42.682;23.294;2023-11-21T03:41:17;94440.84;;;6.37;78.01
11971;BME280;6045;42.682;23.294;2023-11-21T03:43:44;94438.00;;;6.38;78.78
11971;BME280;6045;42.682;23.294;2023-11-21T03:46:11;94422.69;;;6.34;78.33
11971;BME280;6045;42.682;23.294;2023-11-21T03:48:38;94424.56;;;6.33;78.70
11971;BME280;6045;42.682;23.294;2023-11-21T03:51:06;94431.28;;;6.29;78.66
11971;BME280;6045;42.682;23.294;2023-11-21T03:53:33;94427.22;;;6.20;78.62
11971;BME280;6045;42.682;23.294;2023-11-21T03:56:02;94422.34;;;6.24;78.86
11971;BME280;6045;42.682;23.294;2023-11-21T03:58:28;94413.13;;;6.26;78.74
11971;BME280;6045;42.682;23.294;2023-11-21T04:00:55;94418.44;;;6.19;78.58
11971;BME280;6045;42.682;23.294;2023-11-21T04:03:22;94420.50;;;6.17;78.56
11971;BME280;6045;42.682;23.294;2023-11-21T04:05:49;94408.88;;;6.18;79.04
11971;BME280;6045;42.682;23.294;2023-11-21T04:08:17;94418.09;;;6.03;79.48
11971;BME280;6045;42.682;23.294;2023-11-21T04:10:44;94407.88;;;6.06;80.25
11971;BME280;6045;42.682;23.294;2023-11-21T04:13:11;94408.28;;;6.03;79.87
11971;BME280;6045;42.682;23.294;2023-11-21T04:15:38;94409.13;;;5.91;80.25
11971;BME280;6045;42.682;23.294;2023-11-21T04:18:04;94412.38;;;5.93;80.12
11971;BME280;6045;42.682;23.294;2023-11-21T04:20:31;94412.59;;;5.85;81.28
11971;BME280;6045;42.682;23.294;2023-11-21T04:23:00;94413.63;;;5.90;80.96
11971;BME280;6045;42.682;23.294;2023-11-21T04:25:28;94409.50;;;6.01;80.31
11971;BME280;6045;42.682;23.294;2023-11-21T04:27:55;94415.22;;;6.04;80.37
11971;BME280;6045;42.682;23.294;2023-11-21T04:30:21;94412.16;;;6.14;80.60
11971;BME280;6045;42.682;23.294;2023-11-21T04:32:48;94411.94;;;6.09;79.83
11971;BME280;6045;42.682;23.294;2023-11-21T04:35:16;94417.25;;;6.09;79.24
11971;BME280;6045;42.682;23.294;2023-11-21T04:37:43;94416.25;;;6.10;79.77
11971;BME280;6045;42.682;23.294;2023-11-21T04:40:11;94415.81;;;6.13;79.29
11971;BME280;6045;42.682;23.294;2023-11-21T04:42:39;94417.25;;;6.09;79.09
11971;BME280;6045;42.682;23.294;2023-11-21T04:45:07;94417.84;;;6.11;78.97
11971;BME280;6045;42.682;23.294;2023-11-21T04:47:36;94420.28;;;6.12;79.44
11971;BME280;6045;42.682;23.294;2023-11-21T04:50:04;94418.06;;;6.16;79.24
11971;BME280;6045;42.682;23.294;2023-11-21T04:52:31;94428.66;;;6.16;79.36
11971;BME280;6045;42.682;23.294;2023-11-21T04:54:58;94425.59;;;6.19;79.55
11971;BME280;6045;42.682;23.294;2023-11-21T04:57:27;94416.72;;;6.51;86.84
11971;BME280;6045;42.682;23.294;2023-11-21T04:59:55;94416.72;;;6.96;94.86
11971;BME280;6045;42.682;23.294;2023-11-21T05:02:22;94417.94;;;7.31;95.72
11971;BME280;6045;42.682;23.294;2023-11-21T05:04:49;94422.66;;;7.60;93.95
11971;BME280;6045;42.682;23.294;2023-11-21T05:07:15;94426.44;;;7.95;93.39
11971;BME280;6045;42.682;23.294;2023-11-21T05:09:43;94417.25;;;8.16;92.08
11971;BME280;6045;42.682;23.294;2023-11-21T05:12:11;94407.59;;;8.40;89.47
11971;BME280;6045;42.682;23.294;2023-11-21T05:14:38;94413.91;;;8.63;88.14
11971;BME280;6045;42.682;23.294;2023-11-21T05:17:08;94413.97;;;8.75;83.52
11971;BME280;6045;42.682;23.294;2023-11-21T05:19:35;94413.66;;;8.83;81.72
11971;BME280;6045;42.682;23.294;2023-11-21T05:22:03;94404.72;;;8.77;77.30
11971;BME280;6045;42.682;23.294;2023-11-21T05:24:31;94405.03;;;8.51;73.03
11971;BME280;6045;42.682;23.294;2023-11-21T05:26:57;94404.56;;;8.36;73.19
11971;BME280;6045;42.682;23.294;2023-11-21T05:29:24;94420.28;;;8.19;72.61
11971;BME280;6045;42.682;23.294;2023-11-21T05:31:52;94421.47;;;8.05;72.70
11971;BME280;6045;42.682;23.294;2023-11-21T05:34:20;94423.13;;;7.75;73.01
11971;BME280;6045;42.682;23.294;2023-11-21T05:36:49;94429.16;;;7.64;73.65
11971;BME280;6045;42.682;23.294;2023-11-21T05:39:16;94415.31;;;7.55;77.00
11971;BME280;6045;42.682;23.294;2023-11-21T05:41:44;94423.19;;;7.69;78.14
11971;BME280;6045;42.682;23.294;2023-11-21T05:44:11;94423.50;;;8.03;84.33
11971;BME280;6045;42.682;23.294;2023-11-21T05:46:39;94419.91;;;8.41;86.84
11971;BME280;6045;42.682;23.294;2023-11-21T05:49:08;94426.72;;;8.55;79.41
11971;BME280;6045;42.682;23.294;2023-11-21T05:51:36;94423.06;;;8.49;74.50
11971;BME280;6045;42.682;23.294;2023-11-21T05:54:04;94412.81;;;9.01;86.99
11971;BME280;6045;42.682;23.294;2023-11-21T05:56:30;94419.00;;;9.42;86.71
11971;BME280;6045;42.682;23.294;2023-11-21T05:58:58;94417.34;;;9.71;81.77
11971;BME280;6045;42.682;23.294;2023-11-21T06:01:25;94421.34;;;9.50;77.03
11971;BME280;6045;42.682;23.294;2023-11-21T06:03:53;94421.69;;;9.13;74.69
11971;BME280;6045;42.682;23.294;2023-11-21T06:06:21;94426.34;;;9.17;77.83
11971;BME280;6045;42.682;23.294;2023-11-21T06:08:51;94419.06;;;9.24;76.53
11971;BME280;6045;42.682;23.294;2023-11-21T06:11:19;94428.19;;;9.46;77.48
11971;BME280;6045;42.682;23.294;2023-11-21T06:13:46;94434.31;;;9.47;74.13
11971;BME280;6045;42.682;23.294;2023-11-21T06:16:13;94439.25;;;9.73;77.40
11971;BME280;6045;42.682;23.294;2023-11-21T06:18:42;94441.63;;;9.93;71.05
11971;BME280;6045;42.682;23.294;2023-11-21T06:21:09;94430.09;;;10.34;79.48
11971;BME280;6045;42.682;23.294;2023-11-21T06:23:36;94432.16;;;10.43;69.68
11971;BME280;6045;42.682;23.294;2023-11-21T06:26:05;94432.88;;;10.50;74.90
11971;BME280;6045;42.682;23.294;2023-11-21T06:28:32;94442.16;;;10.59;69.73
11971;BME280;6045;42.682;23.294;2023-11-21T06:30:59;94441.66;;;10.62;69.44
11971;BME280;6045;42.682;23.294;2023-11-21T06:33:30;94441.72;;;10.90;69.58
11971;BME280;6045;42.682;23.294;2023-11-21T06:35:57;94442.41;;;11.37;73.19
11971;BME280;6045;42.682;23.294;2023-11-21T06:38:24;94444.41;;;11.70;67.11
11971;BME280;6045;42.682;23.294;2023-11-21T06:43:42;94449.72;;;12.70;69.20
11971;BME280;6045;42.682;23.294;2023-11-21T06:46:11;94453.56;;;13.12;62.42
11971;BME280;6045;42.682;23.294;2023-11-21T06:48:41;94448.56;;;13.42;65.34
11971;BME280;6045;42.682;23.294;2023-11-21T06:51:08;94455.06;;;14.00;58.36
11971;BME280;6045;42.682;23.294;2023-11-21T06:53:36;94449.34;;;14.23;54.42
11971;BME280;6045;42.682;23.294;2023-11-21T06:56:03;94450.28;;;14.33;53.72
11971;BME280;6045;42.682;23.294;2023-11-21T06:58:32;94452.50;;;14.42;51.37
11971;BME280;6045;42.682;23.294;2023-11-21T07:01:00;94446.72;;;14.60;51.41
11971;BME280;6045;42.682;23.294;2023-11-21T07:03:27;94460.22;;;14.65;50.13
11971;BME280;6045;42.682;23.294;2023-11-21T07:05:54;94455.59;;;14.28;51.57
11971;BME280;6045;42.682;23.294;2023-11-21T07:08:20;94460.84;;;13.87;53.04
11971;BME280;6045;42.682;23.294;2023-11-21T07:10:48;94457.06;;;13.34;53.85
11971;BME280;6045;42.682;23.294;2023-11-21T07:13:14;94442.16;;;12.45;54.37
11971;BME280;6045;42.682;23.294;2023-11-21T07:15:41;94444.47;;;11.92;56.78
11971;BME280;6045;42.682;23.294;2023-11-21T07:18:10;94444.59;;;11.40;58.21
11971;BME280;6045;42.682;23.294;2023-11-21T07:20:37;94439.78;;;11.26;60.82
11971;BME280;6045;42.682;23.294;2023-11-21T07:23:04;94444.22;;;11.20;61.03
11971;BME280;6045;42.682;23.294;2023-11-21T07:25:31;94454.91;;;11.20;62.88
11971;BME280;6045;42.682;23.294;2023-11-21T07:28:02;94446.28;;;11.30;61.09
11971;BME280;6045;42.682;23.294;2023-11-21T07:30:31;94451.59;;;11.41;60.09
11971;BME280;6045;42.682;23.294;2023-11-21T07:32:59;94446.75;;;11.55;61.04
11971;BME280;6045;42.682;23.294;2023-11-21T07:35:27;94454.03;;;11.71;59.31
11971;BME280;6045;42.682;23.294;2023-11-21T07:37:54;94448.81;;;11.64;59.49
11971;BME280;6045;42.682;23.294;2023-11-21T07:40:21;94446.59;;;11.61;60.94
11971;BME280;6045;42.682;23.294;2023-11-21T07:42:48;94447.97;;;11.64;60.40
11971;BME280;6045;42.682;23.294;2023-11-21T07:45:15;94447.69;;;12.05;59.30
11971;BME280;6045;42.682;23.294;2023-11-21T07:47:42;94446.22;;;12.14;59.04
11971;BME280;6045;42.682;23.294;2023-11-21T07:50:09;94440.94;;;12.03;60.31
11971;BME280;6045;42.682;23.294;2023-11-21T07:52:37;94434.03;;;12.07;59.47
11971;BME280;6045;42.682;23.294;2023-11-21T07:55:05;94434.69;;;11.97;59.58
11971;BME280;6045;42.682;23.294;2023-11-21T07:57:33;94434.84;;;12.07;59.78
11971;BME280;6045;42.682;23.294;2023-11-21T07:59:59;94432.72;;;12.43;58.47
11971;BME280;6045;42.682;23.294;2023-11-21T08:02:26;94426.06;;;12.45;56.97
11971;BME280;6045;42.682;23.294;2023-11-21T08:04:53;94423.22;;;12.18;59.32
11971;BME280;6045;42.682;23.294;2023-11-21T08:07:22;94424.13;;;12.07;58.86
11971;BME280;6045;42.682;23.294;2023-11-21T08:09:50;94434.34;;;11.77;59.60
11971;BME280;6045;42.682;23.294;2023-11-21T08:12:18;94426.41;;;11.26;60.59
11971;BME280;6045;42.682;23.294;2023-11-21T08:14:45;94426.78;;;11.18;62.59
11971;BME280;6045;42.682;23.294;2023-11-21T08:17:12;94424.31;;;11.28;62.75
11971;BME280;6045;42.682;23.294;2023-11-21T08:19:39;94419.78;;;11.45;62.92
11971;BME280;6045;42.682;23.294;2023-11-21T08:22:06;94425.09;;;11.68;61.50
11971;BME280;6045;42.682;23.294;2023-11-21T08:24:34;94418.22;;;11.60;59.42
11971;BME280;6045;42.682;23.294;2023-11-21T08:27:03;94417.22;;;11.78;60.43
11971;BME280;6045;42.682;23.294;2023-11-21T08:29:30;94418.44;;;11.87;61.71
11971;BME280;6045;42.682;23.294;2023-11-21T08:31:57;94423.16;;;12.13;60.27
11971;BME280;6045;42.682;23.294;2023-11-21T08:34:25;94419.72;;;12.51;59.46
11971;BME280;6045;42.682;23.294;2023-11-21T08:36:52;94419.28;;;12.97;58.11
11971;BME280;6045;42.682;23.294;2023-11-21T08:39:19;94426.41;;;13.09;56.97
11971;BME280;6045;42.682;23.294;2023-11-21T08:41:45;94417.91;;;12.95;57.74
11971;BME280;6045;42.682;23.294;2023-11-21T08:44:31;94415.28;;;13.00;57.68
11971;BME280;6045;42.682;23.294;2023-11-21T08:46:57;94417.28;;;12.88;56.34
11971;BME280;6045;42.682;23.294;2023-11-21T08:49:24;94416.81;;;12.96;57.48
11971;BME280;6045;42.682;23.294;2023-11-21T08:51:53;94408.72;;;12.91;57.37
11971;BME280;6045;42.682;23.294;2023-11-21T08:54:20;94409.56;;;13.13;57.40
11971;BME280;6045;42.682;23.294;2023-11-21T08:56:47;94408.38;;;13.26;56.07
11971;BME280;6045;42.682;23.294;2023-11-21T08:59:15;94392.63;;;13.34;56.55
11971;BME280;6045;42.682;23.294;2023-11-21T09:01:43;94389.59;;;13.26;55.53
11971;BME280;6045;42.682;23.294;2023-11-21T09:04:10;94394.09;;;13.20;55.95
11971;BME280;6045;42.682;23.294;2023-11-21T09:06:38;94383.03;;;12.95;56.99
11971;BME280;6045;42.682;23.294;2023-11-21T09:09:05;94360.00;;;12.99;56.51
11971;BME280;6045;42.682;23.294;2023-11-21T09:11:33;94349.69;;;12.91;56.67
11971;BME280;6045;42.682;23.294;2023-11-21T09:14:01;94359.94;;;12.72;56.83
11971;BME280;6045;42.682;23.294;2023-11-21T09:16:28;94352.31;;;12.43;57.53
11971;BME280;6045;42.682;23.294;2023-11-21T09:18:57;94344.78;;;12.23;59.04
11971;BME280;6045;42.682;23.294;2023-11-21T09:21:24;94346.16;;;12.25;60.17
11971;BME280;6045;42.682;23.294;2023-11-21T09:23:51;94344.97;;;12.16;59.08
11971;BME280;6045;42.682;23.294;2023-11-21T09:26:18;94331.84;;;12.36;58.92
11971;BME280;6045;42.682;23.294;2023-11-21T09:28:45;94323.59;;;12.60;57.96
11971;BME280;6045;42.682;23.294;2023-11-21T09:31:13;94309.94;;;12.83;57.11
11971;BME280;6045;42.682;23.294;2023-11-21T09:33:41;94323.50;;;12.33;58.53
11971;BME280;6045;42.682;23.294;2023-11-21T09:36:12;94306.88;;;12.31;58.45
11971;BME280;6045;42.682;23.294;2023-11-21T09:38:40;94293.31;;;12.86;57.54
11971;BME280;6045;42.682;23.294;2023-11-21T09:41:13;94301.53;;;13.23;55.23
11971;BME280;6045;42.682;23.294;2023-11-21T09:43:45;94296.56;;;13.36;55.79
11971;BME280;6045;42.682;23.294;2023-11-21T09:46:13;94284.38;;;13.87;54.41
11971;BME280;6045;42.682;23.294;2023-11-21T09:48:47;94275.84;;;14.42;52.72
11971;BME280;6045;42.682;23.294;2023-11-21T09:51:19;94266.03;;;14.78;51.26
11971;BME280;6045;42.682;23.294;2023-11-21T09:53:50;94249.16;;;15.13;51.19
11971;BME280;6045;42.682;23.294;2023-11-21T09:56:18;94244.81;;;14.96;50.74
11971;BME280;6045;42.682;23.294;2023-11-21T09:58:51;94245.03;;;14.65;53.15
11971;BME280;6045;42.682;23.294;2023-11-21T10:01:19;94247.81;;;14.33;51.54
11971;BME280;6045;42.682;23.294;2023-11-21T10:03:47;94254.31;;;13.95;53.28
11971;BME280;6045;42.682;23.294;2023-11-21T10:06:14;94252.72;;;13.99;53.12
11971;BME280;6045;42.682;23.294;2023-11-21T10:08:43;94247.19;;;14.21;53.23
11971;BME280;6045;42.682;23.294;2023-11-21T10:11:10;94240.28;;;15.17;50.08
11971;BME280;6045;42.682;23.294;2023-11-21T10:13:40;94232.44;;;16.16;47.06
11971;BME280;6045;42.682;23.294;2023-11-21T10:16:09;94234.56;;;16.98;45.00
11971;BME280;6045;42.682;23.294;2023-11-21T10:18:37;94232.00;;;16.73;46.33
11971;BME280;6045;42.682;23.294;2023-11-21T10:21:06;94217.63;;;16.93;45.52
11971;BME280;6045;42.682;23.294;2023-11-21T10:23:33;94214.56;;;17.09;44.49
11971;BME280;6045;42.682;23.294;2023-11-21T10:26:01;94211.22;;;16.79;45.00
11971;BME280;6045;42.682;23.294;2023-11-21T10:28:28;94218.81;;;16.67;44.12
11971;BME280;6045;42.682;23.294;2023-11-21T10:30:55;94214.88;;;16.39;45.28
11971;BME280;6045;42.682;23.294;2023-11-21T10:33:27;94216.88;;;15.98;46.77
11971;BME280;6045;42.682;23.294;2023-11-21T10:35:55;94205.56;;;15.81;46.86
11971;BME280;6045;42.682;23.294;2023-11-21T10:38:21;94203.97;;;15.70;47.89
11971;BME280;6045;42.682;23.294;2023-11-21T10:40:50;94201.81;;;15.57;47.34
11971;BME280;6045;42.682;23.294;2023-11-21T10:43:18;94197.53;;;15.51;47.54
11971;BME280;6045;42.682;23.294;2023-11-21T10:45:45;94205.28;;;15.12;48.84
11971;BME280;6045;42.682;23.294;2023-11-21T10:48:13;94205.53;;;15.00;48.73
11971;BME280;6045;42.682;23.294;2023-11-21T10:50:42;94199.06;;;14.91;49.43
11971;BME280;6045;42.682;23.294;2023-11-21T10:53:10;94185.03;;;14.79;49.41
11971;BME280;6045;42.682;23.294;2023-11-21T10:55:37;94180.16;;;14.61;49.70
11971;BME280;6045;42.682;23.294;2023-11-21T10:58:23;94189.28;;;14.50;51.35
11971;BME280;6045;42.682;23.294;2023-11-21T11:00:50;94181.34;;;14.23;52.09
11971;BME280;6045;42.682;23.294;2023-11-21T11:03:17;94180.75;;;14.11;52.39
11971;BME280;6045;42.682;23.294;2023-11-21T11:05:44;94180.72;;;14.01;52.67
11971;BME280;6045;42.682;23.294;2023-11-21T11:08:18;94175.25;;;13.81;54.25
11971;BME280;6045;42.682;23.294;2023-11-21T11:10:51;94169.09;;;13.86;53.07
11971;BME280;6045;42.682;23.294;2023-11-21T11:13:19;94172.03;;;13.84;52.72
11971;BME280;6045;42.682;23.294;2023-11-21T11:15:48;94166.66;;;13.84;52.49
11971;BME280;6045;42.682;23.294;2023-11-21T11:18:15;94163.06;;;13.63;53.04
11971;BME280;6045;42.682;23.294;2023-11-21T11:20:43;94161.31;;;13.47;53.86
11971;BME280;6045;42.682;23.294;2023-11-21T11:23:27;94150.94;;;13.56;53.72
11971;BME280;6045;42.682;23.294;2023-11-21T11:26:08;94139.59;;;13.49;54.06
11971;BME280;6045;42.682;23.294;2023-11-21T11:28:47;94141.94;;;13.40;54.59
11971;BME280;6045;42.682;23.294;2023-11-21T11:31:26;94132.53;;;13.33;55.26
11971;BME280;6045;42.682;23.294;2023-11-21T11:33:58;94139.25;;;13.40;54.51
11971;BME280;6045;42.682;23.294;2023-11-21T11:36:31;94135.13;;;13.23;54.91
11971;BME280;6045;42.682;23.294;2023-11-21T11:39:01;94135.69;;;13.25;56.14
11971;BME280;6045;42.682;23.294;2023-11-21T11:41:30;94133.31;;;13.28;55.74
11971;BME280;6045;42.682;23.294;2023-11-21T11:44:00;94148.38;;;13.34;55.02
11971;BME280;6045;42.682;23.294;2023-11-21T11:46:41;94150.16;;;13.24;56.27
11971;BME280;6045;42.682;23.294;2023-11-21T11:49:08;94153.38;;;13.21;57.14
11971;BME280;6045;42.682;23.294;2023-11-21T11:51:35;94151.38;;;13.06;58.56
11971;BME280;6045;42.682;23.294;2023-11-21T11:54:02;94153.47;;;13.04;59.63
11971;BME280;6045;42.682;23.294;2023-11-21T11:56:34;94141.88;;;12.98;60.58
11971;BME280;6045;42.682;23.294;2023-11-21T11:59:03;94136.75;;;12.92;61.28
11971;BME280;6045;42.682;23.294;2023-11-21T12:01:32;94139.97;;;12.94;60.45
11971;BME280;6045;42.682;23.294;2023-11-21T12:04:27;94151.47;;;12.89;63.21
11971;BME280;6045;42.682;23.294;2023-11-21T12:07:01;94154.88;;;12.80;62.88
11971;BME280;6045;42.682;23.294;2023-11-21T12:09:30;94152.56;;;12.62;64.66
11971;BME280;6045;42.682;23.294;2023-11-21T12:11:58;94149.84;;;12.57;65.07
11971;BME280;6045;42.682;23.294;2023-11-21T12:14:25;94148.13;;;12.46;66.75
11971;BME280;6045;42.682;23.294;2023-11-21T12:16:53;94155.03;;;12.42;67.93
11971;BME280;6045;42.682;23.294;2023-11-21T12:19:22;94155.56;;;12.39;68.98
11971;BME280;6045;42.682;23.294;2023-11-21T12:21:51;94148.56;;;12.38;70.55
11971;BME280;6045;42.682;23.294;2023-11-21T12:24:17;94140.47;;;12.32;69.00
11971;BME280;6045;42.682;23.294;2023-11-21T12:26:44;94138.28;;;12.29;69.49
11971;BME280;6045;42.682;23.294;2023-11-21T12:29:11;94139.34;;;12.28;70.27
11971;BME280;6045;42.682;23.294;2023-11-21T12:31:38;94155.56;;;12.17;70.41
11971;BME280;6045;42.682;23.294;2023-11-21T12:34:05;94154.94;;;11.88;69.97
11971;BME280;6045;42.682;23.294;2023-11-21T12:36:34;94157.94;;;11.92;70.18
11971;BME280;6045;42.682;23.294;2023-11-21T12:39:03;94140.53;;;11.89;70.55
11971;BME280;6045;42.682;23.294;2023-11-21T12:41:30;94135.19;;;11.94;69.67
11971;BME280;6045;42.682;23.294;2023-11-21T12:43:57;94141.63;;;11.93;70.00
11971;BME280;6045;42.682;23.294;2023-11-21T12:46:24;94125.19;;;11.85;70.74
11971;BME280;6045;42.682;23.294;2023-11-21T12:48:54;94121.78;;;11.89;70.62
11971;BME280;6045;42.682;23.294;2023-11-21T12:51:22;94125.78;;;11.92;70.78
11971;BME280;6045;42.682;23.294;2023-11-21T12:53:49;94119.53;;;11.81;71.78
11971;BME280;6045;42.682;23.294;2023-11-21T12:56:17;94113.16;;;11.87;71.38
11971;BME280;6045;42.682;23.294;2023-11-21T12:58:45;94110.44;;;11.82;72.01
11971;BME280;6045;42.682;23.294;2023-11-21T13:01:13;94112.50;;;11.75;72.50
11971;BME280;6045;42.682;23.294;2023-11-21T13:03:46;94102.84;;;11.74;73.19
11971;BME280;6045;42.682;23.294;2023-11-21T13:06:14;94097.56;;;11.62;73.02
11971;BME280;6045;42.682;23.294;2023-11-21T13:08:41;94102.69;;;11.64;72.70
11971;BME280;6045;42.682;23.294;2023-11-21T13:11:10;94105.34;;;11.64;72.78
11971;BME280;6045;42.682;23.294;2023-11-21T13:13:40;94099.38;;;11.57;72.76